Bookmark and Share
Track history (hours):
 

Hozan Maru

Last reported at 2014-Apr-17 23:33 UTC. Time now 2014-Apr-18 00:26 UTC.
Position N 34°38' E 135°23'.

Length 38 m; draft 3.6 m.

Type: Tug. MMSI: 431401501.

NotesDate/timePositionNaut miles runAvg speedWind from/ knotsBaromVisibWave heightAir tempDewpointWater temp
2014-Apr-17 23:33N 34°38' E 135°23'4 4.1
2014-Apr-17 22:33N 34°39' E 135°28'4 0.3
2014-Apr-17 08:32N 34°37' E 135°24'5 4.9
2014-Apr-17 07:33N 34°32' E 135°24'0 0.2
2014-Apr-17 04:32N 34°32' E 135°24'2 2.1
2014-Apr-17 03:33N 34°33' E 135°26'1 0.0
2014-Apr-16 13:26N 34°33' E 135°27'4 4.2
2014-Apr-16 12:33N 34°31' E 135°23'1 0.7
2014-Apr-16 11:33N 34°31' E 135°24'0 0.0
2014-Apr-16 10:32N 34°31' E 135°24'0 0.0
2014-Apr-16 09:33N 34°31' E 135°24'0 0.0
2014-Apr-16 08:33N 34°31' E 135°24'0 0.0
2014-Apr-16 07:33N 34°31' E 135°24'1 0.6
2014-Apr-16 06:30N 34°31' E 135°23'2 1.7
2014-Apr-16 05:30N 34°32' E 135°21'2 2.0
2014-Apr-16 04:33N 34°31' E 135°23'0 0.0
2014-Apr-16 03:33N 34°31' E 135°23'3 2.3
2014-Apr-16 02:23N 34°33' E 135°23'2 2.0
2014-Apr-16 01:33N 34°33' E 135°25'2 0.1
2014-Apr-15 06:32N 34°31' E 135°25'2 2.1
2014-Apr-15 05:34N 34°33' E 135°25'1 0.5
2014-Apr-15 03:34N 34°33' E 135°27'0 0.0
2014-Apr-15 02:34N 34°33' E 135°27'1 1.1
2014-Apr-15 01:33N 34°33' E 135°25'1 0.7
2014-Apr-15 00:33N 34°33' E 135°25'4 3.7
2014-Apr-14 23:34N 34°35' E 135°21'6 0.4
2014-Apr-14 07:33N 34°39' E 135°26'1 1.5
2014-Apr-14 06:33N 34°39' E 135°24'1 0.8
2014-Apr-14 05:33N 34°40' E 135°25'2 0.1
2014-Apr-13 03:28N 34°40' E 135°27'2 2.1
2014-Apr-13 02:25N 34°40' E 135°25'0 0.0
2014-Apr-13 01:33N 34°40' E 135°25'6 6.3
2014-Apr-13 00:33N 34°33' E 135°23'2 2.0
2014-Apr-12 23:33N 34°33' E 135°26'6 0.4
2014-Apr-12 07:33N 34°39' E 135°25'1 1.3
2014-Apr-12 06:33N 34°38' E 135°24'6 5.6
2014-Apr-12 05:31N 34°33' E 135°27'1 0.5
2014-Apr-12 04:33N 34°33' E 135°26'2 2.0
2014-Apr-12 03:33N 34°33' E 135°24'3 2.8
2014-Apr-12 02:33N 34°34' E 135°20'9 8.7
2014-Apr-12 01:33N 34°40' E 135°27'1 0.1
2014-Apr-11 06:26N 34°40' E 135°26'1 1.0
2014-Apr-11 05:33N 34°39' E 135°26'5 5.3
2014-Apr-11 04:32N 34°34' E 135°23'3 3.0
2014-Apr-11 03:32N 34°31' E 135°23'2 1.9
2014-Apr-11 02:33N 34°33' E 135°23'1 1.2
2014-Apr-11 01:23N 34°31' E 135°23'0 0.1
2014-Apr-11 00:27N 34°31' E 135°23'1 0.9
2014-Apr-10 23:33N 34°32' E 135°23'6 5.9
2014-Apr-10 22:33N 34°38' E 135°23'3 3.1
2014-Apr-10 21:34N 34°39' E 135°27'1 0.0
2014-Apr-09 09:16N 34°40' E 135°26'1 1.2
2014-Apr-09 08:33N 34°39' E 135°26'3 3.3
2014-Apr-09 07:33N 34°36' E 135°24'1 1.0
2014-Apr-09 06:33N 34°35' E 135°24'2 1.8
2014-Apr-09 05:33N 34°33' E 135°25'2 1.1
2014-Apr-09 03:27N 34°31' E 135°24'2 2.1
2014-Apr-09 02:33N 34°33' E 135°24'5 5.4
2014-Apr-09 01:33N 34°39' E 135°24'2 0.1
2014-Apr-08 06:15N 34°40' E 135°26'1 2.0
2014-Apr-08 05:33N 34°39' E 135°26'0 0.5
2014-Apr-08 04:33N 34°39' E 135°26'0 0.0
2014-Apr-08 03:33N 34°39' E 135°26'0 0.0
2014-Apr-08 02:33N 34°39' E 135°26'2 2.2
2014-Apr-08 01:33N 34°38' E 135°23'5 4.9
2014-Apr-08 00:32N 34°33' E 135°26'1 0.6
2014-Apr-07 23:33N 34°33' E 135°25'  

Dump ship's entire track history

sailing weather and tide predictions

Hozan Maru — JJ4010 — position and weather